Herreid, South Dakota
Current Conditions -  °F | °C
As of 4:17 AM on Wednesday 26 Nov 2014 (Local Time) from KMBG Reporting Station
Overcast Overcast  
Wind Chill: -1°   Ceiling: 1200
Heat Index: 16°   Visibility: 10mi
Dew Point: 11°   Wind: 21mph
Humidity: 81%   Direction: 360°N
Pressure: 30.17"   Gusts: 29mph
Location:  45.83°N, 100.07°W
Report Text: KMBG 261017Z AUTO 36018G25KT 10SM BKN012 BKN027 OVC031 M09/M12 A3017 RMK AO2 PK WND 36028/1004 T10891117
Loading
Personal Weather Stations






























Interactive Weather Map New forecast layout! Learn more

10-Day Weather Forecast

Advertisements
Track Severe Weather on mobile